Карточка аэропорта UUDD

Внимание!
Информация на этой странице в стадии наполнения.
Если вы не увидели какой-то информации, или заметили неточность - пожалуйста сообщите нам!
Спасибо!
Команда RU-STAFF
Название аэропортаДомодедово
Название аэропорта (англ.)Domodedovo
Превышение594 ft. (181.1 m.)
Координаты55°24.516', 37°54.384'
Высота перехода10000 ft
Эшелон переходаQNH>=1013hPa:FL110; QNH<1013hPa:FL120; QNH<977hPa:FL130
Коды ответчика1540-1577
Зона ОрВДМосква РПИ (UUWV)
Данные METARUUDD 272100Z 05005MPS 9999 -RA SCT013 08/06 Q1006 R14R/CLRD60 NOSIG
Проноз погоды (TAF)UUDD 271952Z 2721/2903 04006MPS 6000 FEW004 OVC007 TX13/2812Z TN06/2805Z TEMPO 2721/2808 1000 -SHRA BR OVC003 SCT016CB BECMG 2808/2809 33003MPS FEW006 BKN016 PROB40 TEMPO 2818/2903 0300 FG BKN002
NOTAMshow/hide NOTAM
AWOS   TABLE

Информация о ВПП

ВПП Длина ВПП (м.) Покрытие Курс ВПП Частота ILS
14L2370Железобетон135 
32R2370Железобетон315 
14R3500Цементобетон135110.1
32L3500Цементобетон315109.3
143800Цементобетон135108.5
323800Цементобетон315111.9

Диспетчерские позиции

Позывной Наименование органа УВД Частота
UUDD_TWRДомодедово-Вышка118.600
UUDD_TWRДомодедово-Вышка119.700
UUDD_TWRДомодедово-Вышка127.300
UUDD_DELДомодедово-Деливери129.150
UUDD_GNDДомодедово-Перрон119.000
UUDD_R_APPДомодедово-Круг127.700
UUDD_R_APPДомодедово-Круг132.050
UUDD_R_APPДомодедово-Круг119.400
UUDD_R_APPДомодедово-Круг125.300
UUDD_R_APPДомодедово-Круг129.800
UUDD_R_APPДомодедово-Круг134.675



Спутниковое изображение